Time;durP1;ratioP1;P1;durP2;ratioP2;P2;SDS_P1;SDS_P2;PMS_P1;PMS_P2;Temp;Humidity;BMP_temperature;BMP_pressure;BME280_temperature;BME280_humidity;BME280_pressure;Samples;Min_cycle;Max_cycle;Signal;HPM_P1;HPM_P2
2023/06/21 00:01:50;;;;;;;6.00;4.82;;;;;;;20.10;87.72;98347.06;5032670;28;20186;-56
2023/06/21 00:04:16;;;;;;;5.15;4.72;;;;;;;20.02;88.60;98362.78;5032319;28;20230;-56
2023/06/21 00:06:46;;;;;;;5.25;4.78;;;;;;;20.05;88.40;98360.66;5057306;28;20705;-57
2023/06/21 00:09:12;;;;;;;5.30;4.80;;;;;;;20.07;87.89;98356.09;5071103;28;20686;-56
2023/06/21 00:11:38;;;;;;;7.78;4.53;;;;;;;19.97;87.98;98349.31;5072038;28;20231;-56
2023/06/21 00:14:03;;;;;;;5.72;4.80;;;;;;;19.93;89.01;98355.91;5072083;28;20264;-56
2023/06/21 00:16:30;;;;;;;5.15;4.75;;;;;;;19.78;88.69;98320.78;4973140;28;20674;-56
2023/06/21 00:18:56;;;;;;;5.35;4.65;;;;;;;19.91;89.50;98347.34;4973261;28;20196;-56
2023/06/21 00:21:21;;;;;;;7.38;4.82;;;;;;;19.97;88.80;98351.94;4973189;28;20190;-56
2023/06/21 00:23:46;;;;;;;4.95;4.55;;;;;;;19.96;88.50;98345.06;4973234;28;20599;-57
2023/06/21 00:26:12;;;;;;;5.85;5.25;;;;;;;20.01;88.25;98342.78;4972821;28;20310;-56
2023/06/21 00:28:38;;;;;;;5.78;4.78;;;;;;;19.89;88.63;98323.91;4973089;28;20295;-56
2023/06/21 00:31:08;;;;;;;5.28;4.88;;;;;;;19.92;88.70;98349.00;4972863;28;20218;-56
2023/06/21 00:33:33;;;;;;;5.93;5.20;;;;;;;19.81;89.30;98338.84;4973071;28;20176;-56
2023/06/21 00:35:58;;;;;;;5.70;5.00;;;;;;;19.90;89.42;98345.72;4972886;28;20222;-57
2023/06/21 00:38:24;;;;;;;5.20;4.78;;;;;;;19.90;89.60;98345.72;4972891;28;20191;-57
2023/06/21 00:40:51;;;;;;;5.40;4.88;;;;;;;19.67;89.60;98329.81;4972792;28;20196;-57
2023/06/21 00:43:16;;;;;;;4.65;4.25;;;;;;;19.80;89.50;98338.00;4972813;28;20184;-57
2023/06/21 00:45:45;;;;;;;6.13;4.40;;;;;;;19.79;88.87;98333.75;4972689;28;20626;-57
2023/06/21 00:48:11;;;;;;;6.13;4.85;;;;;;;19.71;89.84;98325.84;5035042;28;20190;-57
2023/06/21 00:50:40;;;;;;;6.22;4.75;;;;;;;19.70;90.37;98353.09;5051364;28;20677;-57
2023/06/21 00:53:06;;;;;;;5.10;4.60;;;;;;;19.56;91.11;98332.75;4991966;28;20285;-56
2023/06/21 00:55:32;;;;;;;5.00;4.55;;;;;;;19.49;91.07;98323.91;4992010;28;20274;-57
2023/06/21 00:57:58;;;;;;;5.00;4.60;;;;;;;19.71;91.10;98340.81;5024339;28;20240;-57
2023/06/21 01:00:25;;;;;;;5.18;4.78;;;;;;;19.73;91.34;98349.34;5031313;28;20261;-57
2023/06/21 01:02:53;;;;;;;5.10;4.70;;;;;;;19.76;90.67;98349.00;5031222;28;20197;-57
2023/06/21 01:05:21;;;;;;;5.65;5.15;;;;;;;19.73;90.93;98346.69;5031119;28;20731;-56
2023/06/21 01:07:49;;;;;;;5.22;4.72;;;;;;;19.82;90.06;98358.88;5031358;28;20186;-56
2023/06/21 01:10:41;;;;;;;4.90;4.53;;;;;;;19.71;89.94;98362.59;5031331;28;20181;-57
2023/06/21 01:13:12;;;;;;;5.20;4.82;;;;;;;19.75;89.98;98369.19;4972078;28;20612;-57
2023/06/21 01:15:47;;;;;;;5.05;4.65;;;;;;;19.46;91.55;98353.06;4972186;28;20722;-57
2023/06/21 01:18:14;;;;;;;5.50;5.00;;;;;;;19.63;91.03;98372.28;4972203;28;20183;-57
2023/06/21 01:20:41;;;;;;;5.90;5.40;;;;;;;19.52;92.63;98362.13;4972181;28;20180;-57
2023/06/21 01:23:23;;;;;;;5.10;4.57;;;;;;;19.48;92.71;98373.91;4979176;28;20192;-57
2023/06/21 01:26:22;;;;;;;6.18;5.32;;;;;;;19.48;92.73;98372.09;5030751;28;20204;-56
2023/06/21 01:29:09;;;;;;;5.22;4.78;;;;;;;19.28;93.01;98351.56;5030729;28;20671;-56
2023/06/21 01:31:35;;;;;;;5.20;4.80;;;;;;;19.25;93.65;98354.50;5030535;28;20198;-56
2023/06/21 01:34:03;;;;;;;5.43;4.90;;;;;;;19.21;94.65;98364.50;5030650;28;20243;-57
2023/06/21 01:36:29;;;;;;;6.13;5.53;;;;;;;19.06;94.80;98339.81;5030531;28;20220;-57
2023/06/21 01:38:56;;;;;;;5.40;5.00;;;;;;;19.23;94.79;98372.22;5030578;28;20232;-57
2023/06/21 01:41:21;;;;;;;5.32;4.50;;;;;;;19.20;94.29;98357.59;5030544;28;20180;-58
2023/06/21 01:43:47;;;;;;;7.30;5.25;;;;;;;19.29;94.04;98367.13;5030458;28;20277;-56
2023/06/21 01:46:14;;;;;;;5.03;4.60;;;;;;;19.25;94.09;98359.75;5030364;28;20198;-56
2023/06/21 01:48:41;;;;;;;5.35;4.85;;;;;;;19.16;93.83;98348.38;5030669;28;20181;-56
2023/06/21 01:51:09;;;;;;;7.22;5.25;;;;;;;19.22;93.67;98344.31;5046994;28;20242;-56
2023/06/21 01:53:36;;;;;;;4.85;4.55;;;;;;;19.29;93.55;98340.09;5050212;28;20673;-56
2023/06/21 01:56:08;;;;;;;5.68;5.18;;;;;;;19.25;94.08;98347.47;5010387;28;20302;-57
2023/06/21 01:58:34;;;;;;;4.95;4.45;;;;;;;19.14;94.42;98339.88;5010634;28;20198;-56
2023/06/21 02:01:00;;;;;;;5.57;5.07;;;;;;;19.15;94.76;98343.28;5010751;28;20676;-57
2023/06/21 02:03:28;;;;;;;5.57;5.05;;;;;;;19.02;94.99;98335.91;4971282;28;20200;-57
2023/06/21 02:05:54;;;;;;;5.63;4.95;;;;;;;19.00;95.58;98344.91;4971210;28;20255;-57
2023/06/21 02:08:21;;;;;;;5.25;4.75;;;;;;;18.89;96.23;98337.31;4951949;29;20199;-57
2023/06/21 02:10:47;;;;;;;6.80;4.68;;;;;;;18.89;95.93;98334.69;4952048;29;20195;-57
2023/06/21 02:13:16;;;;;;;5.50;5.10;;;;;;;18.91;96.00;98317.84;4932642;29;20197;-58
2023/06/21 02:15:42;;;;;;;5.88;5.18;;;;;;;18.91;95.92;98336.19;4933005;29;20707;-57
2023/06/21 02:18:09;;;;;;;5.75;4.75;;;;;;;18.94;95.25;98324.56;4932791;29;20223;-57
2023/06/21 02:20:35;;;;;;;5.32;4.93;;;;;;;18.95;94.86;98315.72;4932799;29;20212;-57
2023/06/21 02:23:01;;;;;;;4.65;4.25;;;;;;;19.13;94.58;98345.28;4949468;29;20196;-57
2023/06/21 02:25:27;;;;;;;5.43;4.95;;;;;;;18.98;95.29;98331.13;4951968;29;20631;-57
2023/06/21 02:27:53;;;;;;;4.63;4.32;;;;;;;19.11;94.93;98353.28;4985099;28;20195;-57
2023/06/21 02:30:18;;;;;;;5.55;5.05;;;;;;;19.04;95.09;98351.47;4989801;28;20251;-57
2023/06/21 02:32:44;;;;;;;5.60;4.90;;;;;;;19.08;95.05;98358.03;4974107;28;20198;-57
2023/06/21 02:35:09;;;;;;;5.22;4.72;;;;;;;19.09;94.68;98372.78;5008616;28;20669;-57
2023/06/21 02:37:35;;;;;;;6.57;4.70;;;;;;;19.13;94.17;98361.81;5016703;28;20166;-57
2023/06/21 02:40:09;;;;;;;6.60;5.57;;;;;;;18.95;93.76;98344.56;5032141;28;20255;-57
2023/06/21 02:42:35;;;;;;;7.78;5.18;;;;;;;19.11;94.44;98369.03;5036395;28;20180;-57
2023/06/21 02:45:00;;;;;;;5.03;4.60;;;;;;;19.03;94.67;98361.16;5071392;28;20283;-57
2023/06/21 02:47:26;;;;;;;5.07;4.63;;;;;;;19.02;94.11;98364.75;5016338;28;20186;-57
2023/06/21 02:49:51;;;;;;;5.68;5.18;;;;;;;19.02;95.09;98374.41;5016481;28;20197;-57
2023/06/21 02:52:17;;;;;;;6.30;4.95;;;;;;;18.98;94.68;98363.41;5016280;28;20319;-57
2023/06/21 02:54:42;;;;;;;6.32;4.75;;;;;;;18.94;94.50;98348.16;5016315;28;20323;-57
2023/06/21 02:57:08;;;;;;;7.72;5.75;;;;;;;19.18;93.53;98375.28;5016370;28;20182;-57
2023/06/21 02:59:35;;;;;;;7.85;4.72;;;;;;;19.19;93.25;98387.44;4996626;28;20700;-57
2023/06/21 03:02:01;;;;;;;5.32;4.82;;;;;;;19.13;93.90;98374.13;4996736;28;20197;-57
2023/06/21 03:04:26;;;;;;;5.10;4.70;;;;;;;19.08;93.05;98360.66;4996615;28;20194;-57
2023/06/21 03:06:52;;;;;;;5.90;5.20;;;;;;;19.24;93.21;98377.28;4996995;28;20235;-57
2023/06/21 03:09:17;;;;;;;4.85;4.45;;;;;;;19.35;92.23;98376.19;4996673;28;20688;-57
2023/06/21 03:11:44;;;;;;;6.50;4.90;;;;;;;19.21;92.22;98374.16;4996668;28;20333;-57
2023/06/21 03:14:10;;;;;;;5.05;4.65;;;;;;;19.15;92.47;98369.53;4996524;28;20214;-57
2023/06/21 03:16:35;;;;;;;5.68;5.18;;;;;;;19.08;92.80;98364.13;4996664;28;20175;-63
2023/06/21 03:19:00;;;;;;;5.40;4.93;;;;;;;19.23;92.75;98398.47;5026212;28;20607;-57
2023/06/21 03:21:26;;;;;;;5.25;4.82;;;;;;;19.14;92.56;98367.88;5035959;28;20273;-57
2023/06/21 03:23:51;;;;;;;5.43;4.93;;;;;;;19.12;92.34;98364.63;4996456;28;20624;-57
2023/06/21 03:26:17;;;;;;;6.13;4.40;;;;;;;19.31;93.14;98395.84;4996375;28;20218;-57
2023/06/21 03:28:42;;;;;;;5.30;4.60;;;;;;;19.37;91.94;98405.72;4996388;28;20579;-57
2023/06/21 03:31:08;;;;;;;5.35;4.85;;;;;;;19.38;92.15;98407.34;5010932;28;20221;-57
2023/06/21 03:33:33;;;;;;;5.40;4.85;;;;;;;19.43;91.82;98399.81;5016089;28;20186;-57
2023/06/21 03:35:58;;;;;;;5.88;5.38;;;;;;;19.40;91.34;98398.34;5016089;28;20189;-57
2023/06/21 03:38:24;;;;;;;5.82;5.32;;;;;;;19.44;97.04;98411.94;5015990;28;20264;-57
2023/06/21 03:40:49;;;;;;;7.40;5.18;;;;;;;19.45;92.89;98397.84;5015956;28;20270;-57
2023/06/21 03:43:15;;;;;;;5.75;4.80;;;;;;;19.61;90.91;98413.63;5015624;28;20194;-57
2023/06/21 03:45:40;;;;;;;5.18;4.68;;;;;;;19.56;90.70;98405.41;5012764;28;20203;-57
2023/06/21 03:48:06;;;;;;;6.93;4.78;;;;;;;19.68;89.67;98409.38;5012890;28;20198;-57
2023/06/21 03:50:33;;;;;;;5.15;4.75;;;;;;;19.72;89.34;98410.72;5012895;28;20183;-57
2023/06/21 03:52:58;;;;;;;5.20;4.75;;;;;;;19.74;88.42;98413.97;5012795;28;20185;-57
2023/06/21 03:55:24;;;;;;;4.68;4.28;;;;;;;19.81;89.31;98423.69;5041715;28;20193;-57
2023/06/21 03:57:50;;;;;;;5.13;4.60;;;;;;;19.86;88.29;98423.19;5052399;28;20188;-57
2023/06/21 04:00:16;;;;;;;6.13;4.85;;;;;;;19.97;87.96;98425.50;5068529;28;20184;-57
2023/06/21 04:02:42;;;;;;;5.57;4.90;;;;;;;20.03;88.00;98424.84;5074664;28;20238;-57
2023/06/21 04:05:10;;;;;;;6.35;5.15;;;;;;;20.09;87.44;98418.97;5074477;28;20196;-57
2023/06/21 04:07:36;;;;;;;4.68;4.28;;;;;;;20.13;88.06;98405.34;5074646;28;20172;-57
2023/06/21 04:10:01;;;;;;;6.97;5.00;;;;;;;20.26;86.35;98410.09;5074211;28;20533;-57
2023/06/21 04:12:28;;;;;;;5.50;4.70;;;;;;;20.42;85.53;98415.34;5074209;28;20191;-57
2023/06/21 04:14:54;;;;;;;5.90;4.88;;;;;;;20.47;85.55;98410.41;5074496;28;20183;-57
2023/06/21 04:17:20;;;;;;;5.03;4.60;;;;;;;20.49;84.47;98390.84;5074147;28;20180;-57
2023/06/21 04:19:45;;;;;;;5.40;5.00;;;;;;;20.56;83.62;98397.09;5074326;28;20172;-57
2023/06/21 04:22:11;;;;;;;6.28;4.30;;;;;;;20.61;83.87;98407.09;5074299;28;20173;-57
2023/06/21 04:24:36;;;;;;;6.82;6.22;;;;;;;20.73;88.83;98411.00;5073903;28;20224;-57
2023/06/21 04:27:03;;;;;;;7.10;6.00;;;;;;;20.76;90.42;98413.31;5073887;28;20180;-57
2023/06/21 04:29:29;;;;;;;8.27;5.43;;;;;;;20.87;87.71;98408.50;5074161;28;20179;-57
2023/06/21 04:31:55;;;;;;;5.35;4.85;;;;;;;20.74;84.91;98387.19;5088256;28;20681;-57
2023/06/21 04:34:21;;;;;;;7.32;6.35;;;;;;;20.76;88.27;98413.31;5093966;28;20168;-57
2023/06/21 04:36:47;;;;;;;11.30;7.25;;;;;;;20.90;88.94;98418.72;5094277;28;20178;-57
2023/06/21 04:39:21;;;;;;;10.05;7.15;;;;;;;21.01;86.87;98407.00;5094206;28;20249;-57
2023/06/21 04:41:47;;;;;;;5.80;5.32;;;;;;;21.03;84.45;98400.59;5094306;28;20167;-57
2023/06/21 04:44:16;;;;;;;8.15;5.18;;;;;;;21.05;83.04;98416.22;5031266;28;20696;-57
2023/06/21 04:46:42;;;;;;;5.65;5.10;;;;;;;21.06;84.17;98412.59;4992070;28;20195;-57
2023/06/21 04:49:07;;;;;;;5.20;4.75;;;;;;;21.06;83.90;98396.78;4992146;28;20179;-57
2023/06/21 04:51:33;;;;;;;5.72;5.07;;;;;;;21.10;85.50;98421.78;4992100;28;20193;-57
2023/06/21 04:53:59;;;;;;;6.05;5.53;;;;;;;21.26;86.25;98411.16;4992103;28;20187;-57
2023/06/21 04:56:27;;;;;;;6.00;4.95;;;;;;;21.41;83.74;98415.56;4991479;28;20210;-57
2023/06/21 04:58:53;;;;;;;5.22;4.75;;;;;;;21.30;82.14;98396.69;4991980;28;20184;-57
2023/06/21 05:01:18;;;;;;;6.32;5.07;;;;;;;21.49;80.75;98404.13;4991888;28;20183;-57
2023/06/21 05:03:47;;;;;;;5.18;4.68;;;;;;;21.65;79.94;98420.69;4991830;28;20278;-57
2023/06/21 05:06:14;;;;;;;5.53;5.00;;;;;;;21.72;80.57;98419.03;4991659;28;20199;-57
2023/06/21 05:08:41;;;;;;;6.07;4.68;;;;;;;21.67;79.97;98413.44;4991728;28;20190;-57
2023/06/21 05:11:06;;;;;;;4.97;4.43;;;;;;;21.62;80.37;98401.78;4991563;28;20192;-57
2023/06/21 05:13:32;;;;;;;5.65;4.25;;;;;;;21.77;79.82;98415.84;4991961;28;20179;-57
2023/06/21 05:15:58;;;;;;;5.70;4.60;;;;;;;21.81;79.29;98423.25;5039890;28;20197;-57
2023/06/21 05:18:23;;;;;;;6.78;4.72;;;;;;;21.88;79.04;98426.00;5050909;28;20182;-57
2023/06/21 05:20:49;;;;;;;6.00;4.80;;;;;;;21.73;78.26;98390.88;5050870;28;20289;-57
2023/06/21 05:23:14;;;;;;;4.70;4.40;;;;;;;21.88;78.21;98410.19;5056394;28;20200;-57
2023/06/21 05:25:39;;;;;;;5.05;4.63;;;;;;;21.90;78.65;98402.91;5093226;28;20195;-57
2023/06/21 05:28:05;;;;;;;5.05;4.65;;;;;;;21.92;79.23;98416.75;5093146;28;20183;-57
2023/06/21 05:30:30;;;;;;;4.72;4.30;;;;;;;22.08;78.39;98420.06;5093144;28;20199;-57
2023/06/21 05:32:56;;;;;;;5.78;4.40;;;;;;;22.23;78.13;98412.22;5093211;28;20165;-57
2023/06/21 05:35:21;;;;;;;7.78;5.32;;;;;;;22.46;79.79;98428.84;5070372;28;20184;-57
2023/06/21 05:37:47;;;;;;;12.73;7.13;;;;;;;22.53;79.31;98419.22;5070704;28;20241;-57
2023/06/21 05:40:12;;;;;;;12.32;8.00;;;;;;;22.73;79.21;98436.19;5030395;28;20436;-57
2023/06/21 05:42:38;;;;;;;14.45;7.25;;;;;;;22.73;78.62;98415.06;5030541;28;20186;-57
2023/06/21 05:45:05;;;;;;;7.18;6.38;;;;;;;22.94;77.01;98433.63;5030421;28;20210;-57
2023/06/21 05:47:31;;;;;;;6.72;5.75;;;;;;;23.09;75.11;98439.75;5030400;28;20186;-57
2023/06/21 05:49:56;;;;;;;7.88;5.75;;;;;;;22.91;76.55;98423.44;5030391;28;20189;-57
2023/06/21 05:52:22;;;;;;;9.02;6.40;;;;;;;23.03;77.27;98436.03;5030442;28;20316;-57
2023/06/21 05:54:47;;;;;;;9.98;5.90;;;;;;;23.09;77.24;98432.66;5030334;28;20210;-57
2023/06/21 05:57:12;;;;;;;10.90;6.30;;;;;;;23.21;77.45;98443.59;5030131;28;20767;-57
2023/06/21 05:59:38;;;;;;;7.10;5.20;;;;;;;23.20;75.52;98418.19;5030141;28;20189;-57
2023/06/21 06:02:05;;;;;;;6.40;4.88;;;;;;;23.31;72.80;98433.56;5030190;28;20185;-57
2023/06/21 06:04:30;;;;;;;6.93;4.68;;;;;;;23.33;72.02;98436.84;5030130;28;20216;-57
2023/06/21 06:06:56;;;;;;;5.57;4.97;;;;;;;23.45;72.42;98448.56;5029354;28;20269;-57
2023/06/21 06:09:23;;;;;;;4.63;4.13;;;;;;;23.40;72.94;98435.91;5030082;28;20583;-57
2023/06/21 06:11:49;;;;;;;4.47;4.18;;;;;;;23.48;72.50;98419.16;5060440;28;20227;-57
2023/06/21 06:14:15;;;;;;;6.53;4.63;;;;;;;23.54;72.63;98428.97;5069983;28;20183;-57
2023/06/21 06:16:40;;;;;;;5.18;4.68;;;;;;;23.57;71.30;98420.66;5010083;28;20182;-57
2023/06/21 06:19:06;;;;;;;6.60;4.32;;;;;;;23.74;70.97;98444.84;5010223;28;20186;-57
2023/06/21 06:21:31;;;;;;;4.88;4.47;;;;;;;23.68;70.85;98427.09;5010245;28;20632;-58
2023/06/21 06:23:57;;;;;;;5.00;4.70;;;;;;;23.83;70.35;98431.53;5010232;28;20185;-58
2023/06/21 06:26:26;;;;;;;7.25;4.30;;;;;;;24.04;71.08;98450.91;5010135;28;20205;-57
2023/06/21 06:28:53;;;;;;;5.43;4.22;;;;;;;24.21;69.76;98447.00;5010123;28;20198;-58
2023/06/21 06:31:21;;;;;;;5.15;4.60;;;;;;;24.08;70.42;98424.91;5009975;28;20194;-57
2023/06/21 06:33:47;;;;;;;8.63;4.75;;;;;;;24.29;70.35;98444.22;5012991;28;20193;-57
2023/06/21 06:36:12;;;;;;;7.88;6.50;;;;;;;24.37;71.30;98436.97;5029787;28;20181;-58
2023/06/21 06:38:38;;;;;;;9.57;6.22;;;;;;;24.47;69.94;98434.81;5030091;28;20185;-58
2023/06/21 06:41:04;;;;;;;6.88;5.10;;;;;;;24.54;68.79;98443.63;5029749;28;20210;-58
2023/06/21 06:43:30;;;;;;;5.47;5.07;;;;;;;24.68;69.49;98434.78;5029781;28;20303;-57
2023/06/21 06:45:55;;;;;;;7.05;5.75;;;;;;;24.83;69.19;98438.16;5029616;28;20292;-57
2023/06/21 06:48:20;;;;;;;5.85;5.35;;;;;;;24.86;66.40;98424.53;5029707;28;20565;-57
2023/06/21 06:50:46;;;;;;;5.72;5.22;;;;;;;25.06;66.92;98433.41;5029714;28;20178;-58
2023/06/21 06:53:11;;;;;;;4.85;4.40;;;;;;;25.00;65.68;98415.66;5037637;28;21122;-58
2023/06/21 06:55:37;;;;;;;4.75;4.35;;;;;;;24.95;64.48;98407.47;5092113;28;20198;-57
2023/06/21 06:58:02;;;;;;;4.93;4.63;;;;;;;25.16;64.87;98428.56;5092070;28;20690;-57
2023/06/21 07:00:28;;;;;;;5.10;4.43;;;;;;;25.15;65.46;98407.56;5092014;28;20200;-57
2023/06/21 07:02:57;;;;;;;4.40;4.10;;;;;;;25.29;64.13;98422.53;5092030;28;20646;-57
2023/06/21 07:05:23;;;;;;;5.40;4.90;;;;;;;25.27;64.74;98425.41;5091907;28;20224;-57
2023/06/21 07:07:50;;;;;;;4.63;4.25;;;;;;;25.29;63.90;98418.06;5091963;28;20171;-57
2023/06/21 07:10:15;;;;;;;5.72;4.25;;;;;;;25.27;63.84;98406.88;5091957;28;20179;-57
2023/06/21 07:12:41;;;;;;;4.85;4.30;;;;;;;25.40;64.26;98421.97;5091926;28;20182;-57
2023/06/21 07:15:06;;;;;;;4.65;4.28;;;;;;;25.44;64.32;98417.91;5091886;28;20179;-57
2023/06/21 07:17:32;;;;;;;4.72;4.18;;;;;;;25.44;63.64;98402.84;5091892;28;20218;-57
2023/06/21 07:19:57;;;;;;;5.20;4.70;;;;;;;25.51;63.60;98405.50;5095028;28;20168;-57
2023/06/21 07:22:23;;;;;;;5.10;4.40;;;;;;;25.71;62.73;98423.09;5095705;28;20187;-56
2023/06/21 07:24:48;;;;;;;4.35;4.05;;;;;;;25.69;61.74;98398.63;5095552;28;20196;-56
2023/06/21 07:27:13;;;;;;;4.43;4.10;;;;;;;25.85;60.62;98424.78;5095561;28;20643;-56
2023/06/21 07:29:39;;;;;;;5.28;4.78;;;;;;;25.85;60.53;98427.44;5095566;28;20172;-57
2023/06/21 07:32:04;;;;;;;5.10;4.50;;;;;;;25.75;62.10;98405.78;5095605;28;20245;-57
2023/06/21 07:34:30;;;;;;;5.10;4.70;;;;;;;25.84;61.18;98409.06;5095503;28;20175;-56
2023/06/21 07:36:56;;;;;;;7.25;5.40;;;;;;;25.85;61.62;98398.28;5095313;28;20188;-57
2023/06/21 07:39:21;;;;;;;5.93;5.38;;;;;;;25.88;61.93;98389.91;5095414;28;20192;-57
2023/06/21 07:41:47;;;;;;;11.18;5.53;;;;;;;26.00;62.12;98395.47;5095342;28;20565;-57
2023/06/21 07:44:12;;;;;;;6.00;5.43;;;;;;;26.12;62.14;98389.34;5094965;28;20630;-56
2023/06/21 07:46:37;;;;;;;6.07;5.45;;;;;;;26.35;61.87;98410.97;5095149;28;20188;-57
2023/06/21 07:49:03;;;;;;;6.40;5.75;;;;;;;26.36;62.42;98402.00;5095111;28;20262;-57
2023/06/21 07:51:28;;;;;;;5.68;5.18;;;;;;;26.57;60.99;98419.56;5095129;28;20183;-57
2023/06/21 07:53:54;;;;;;;10.52;5.82;;;;;;;26.48;60.35;98403.00;5094766;28;20167;-57
2023/06/21 07:56:20;;;;;;;12.90;6.30;;;;;;;26.51;59.88;98399.97;5052197;28;20192;-57
2023/06/21 07:58:46;;;;;;;11.77;5.88;;;;;;;26.66;60.61;98413.84;5032308;28;20269;-57
2023/06/21 08:01:13;;;;;;;7.80;5.78;;;;;;;26.64;60.96;98394.66;5032254;28;20198;-58
2023/06/21 08:03:40;;;;;;;8.57;6.03;;;;;;;26.53;59.63;98392.59;5032306;28;20260;-56
2023/06/21 08:06:05;;;;;;;9.57;5.65;;;;;;;26.62;58.90;98417.97;5012255;28;20214;-58
2023/06/21 08:08:30;;;;;;;8.35;6.70;;;;;;;26.68;59.95;98424.25;5012483;28;20720;-57
2023/06/21 08:10:56;;;;;;;6.57;5.97;;;;;;;26.73;58.84;98417.34;5012369;28;20198;-57
2023/06/21 08:13:22;;;;;;;6.43;5.88;;;;;;;26.77;58.36;98423.03;4973296;28;20184;-59
2023/06/21 08:15:53;;;;;;;6.45;5.85;;;;;;;26.82;58.89;98428.56;4973250;28;20195;-58
2023/06/21 08:18:19;;;;;;;7.35;5.38;;;;;;;26.96;56.94;98430.97;4973340;28;20195;-59
2023/06/21 08:20:44;;;;;;;6.82;5.40;;;;;;;27.02;56.49;98430.16;4973170;28;20219;-58
2023/06/21 08:23:10;;;;;;;8.23;5.18;;;;;;;27.08;54.59;98433.78;4972992;28;20188;-59
2023/06/21 08:25:35;;;;;;;8.93;5.10;;;;;;;27.13;55.07;98432.16;4972897;28;20598;-56
2023/06/21 08:28:02;;;;;;;10.32;5.22;;;;;;;27.10;55.39;98411.31;4953522;29;20659;-57
2023/06/21 08:30:27;;;;;;;7.90;5.15;;;;;;;27.32;54.13;98433.97;4983289;28;20225;-57
2023/06/21 08:32:53;;;;;;;5.80;5.30;;;;;;;27.26;53.84;98410.88;4992442;28;20649;-57
2023/06/21 08:35:18;;;;;;;9.52;5.72;;;;;;;27.44;53.92;98429.63;4992286;28;20681;-57
2023/06/21 08:37:57;;;;;;;11.27;7.75;;;;;;;27.37;53.08;98404.09;5007248;28;20193;-58
2023/06/21 08:40:26;;;;;;;5.03;4.53;;;;;;;27.25;53.35;98406.59;5011861;28;20605;-58
2023/06/21 08:42:52;;;;;;;5.82;4.80;;;;;;;27.40;53.69;98412.44;5011888;28;20211;-58
2023/06/21 08:45:18;;;;;;;6.40;5.53;;;;;;;27.50;52.17;98420.81;5029236;28;20213;-58
2023/06/21 08:47:45;;;;;;;11.07;5.90;;;;;;;27.56;52.27;98419.97;5031488;28;20189;-58
2023/06/21 08:50:13;;;;;;;8.38;5.20;;;;;;;27.52;51.79;98394.81;4992045;28;20202;-58
2023/06/21 08:52:41;;;;;;;8.25;4.72;;;;;;;27.74;48.88;98412.09;4992118;28;20195;-58
2023/06/21 08:55:09;;;;;;;6.95;4.93;;;;;;;27.78;48.94;98413.31;4992087;28;20186;-58
2023/06/21 08:57:56;;;;;;;6.38;5.03;;;;;;;27.84;49.07;98404.50;4974368;28;20184;-58
2023/06/21 09:00:29;;;;;;;7.22;5.30;;;;;;;27.90;49.23;98408.97;4988144;28;20186;-58
2023/06/21 09:03:15;;;;;;;6.50;4.78;;;;;;;27.74;49.67;98382.00;5011629;28;20175;-58
2023/06/21 09:05:40;;;;;;;11.07;5.20;;;;;;;27.87;49.14;98385.44;5034889;28;20201;-57
2023/06/21 09:08:07;;;;;;;5.38;4.68;;;;;;;27.90;49.50;98376.22;5051161;28;20261;-57
2023/06/21 09:10:34;;;;;;;16.65;5.50;;;;;;;27.81;49.26;98375.66;5051040;28;20189;-57
2023/06/21 09:13:01;;;;;;;6.22;5.00;;;;;;;28.01;49.44;98410.94;5031152;28;20583;-57
2023/06/21 09:15:29;;;;;;;9.27;4.72;;;;;;;28.09;48.68;98408.00;5031065;28;20190;-57
2023/06/21 09:17:56;;;;;;;10.30;4.88;;;;;;;28.23;48.28;98406.84;5030917;28;20190;-57
2023/06/21 09:20:28;;;;;;;5.25;4.75;;;;;;;28.34;47.93;98422.13;5014318;28;20190;-58
2023/06/21 09:22:55;;;;;;;9.55;4.93;;;;;;;28.41;47.39;98417.63;5030814;28;20189;-57
2023/06/21 09:25:21;;;;;;;8.63;5.80;;;;;;;28.36;47.83;98401.44;5030676;28;20214;-57
2023/06/21 09:27:46;;;;;;;7.18;4.85;;;;;;;28.49;47.76;98414.69;5030759;28;20178;-58
2023/06/21 09:30:13;;;;;;;6.55;4.68;;;;;;;28.52;47.90;98416.09;5030698;28;20264;-57
2023/06/21 09:32:39;;;;;;;7.68;4.78;;;;;;;28.45;45.86;98400.16;5030561;28;20208;-57
2023/06/21 09:35:05;;;;;;;5.70;4.65;;;;;;;28.50;45.73;98395.00;5030678;28;20190;-57
2023/06/21 09:37:34;;;;;;;5.90;4.97;;;;;;;28.72;46.25;98425.53;5030505;28;20181;-57
2023/06/21 09:40:00;;;;;;;5.15;4.50;;;;;;;28.80;46.85;98414.59;5030531;28;20213;-57
2023/06/21 09:42:28;;;;;;;6.32;4.80;;;;;;;28.74;44.83;98420.78;5030279;28;20228;-57
2023/06/21 09:44:53;;;;;;;8.70;4.10;;;;;;;28.48;44.76;98409.56;5047892;28;20687;-57
2023/06/21 09:47:19;;;;;;;6.53;4.75;;;;;;;28.61;45.09;98409.44;5050288;28;20347;-57
2023/06/21 09:49:46;;;;;;;8.98;4.85;;;;;;;28.60;44.56;98390.00;5050331;28;20185;-57
2023/06/21 09:52:13;;;;;;;7.60;4.65;;;;;;;28.73;44.64;98394.38;5086426;28;20188;-57
2023/06/21 09:54:42;;;;;;;6.90;5.05;;;;;;;28.89;45.83;98410.59;5092489;28;20221;-57
2023/06/21 09:57:08;;;;;;;6.18;4.90;;;;;;;28.94;43.92;98385.97;5092481;28;20676;-58
2023/06/21 09:59:37;;;;;;;9.38;5.22;;;;;;;29.16;43.89;98405.84;5092662;28;20208;-58
2023/06/21 10:02:05;;;;;;;5.75;4.20;;;;;;;29.14;43.55;98382.06;5092421;28;20567;-58
2023/06/21 10:04:39;;;;;;;8.30;4.45;;;;;;;29.41;42.83;98407.38;5092191;28;20264;-58
2023/06/21 10:07:05;;;;;;;6.28;4.80;;;;;;;29.42;41.58;98398.34;5092613;28;20622;-58
2023/06/21 10:09:37;;;;;;;6.90;4.53;;;;;;;29.43;42.96;98381.28;5092603;28;20178;-58
2023/06/21 10:12:05;;;;;;;5.88;4.25;;;;;;;29.52;41.79;98400.47;5092565;28;20679;-58
2023/06/21 10:14:31;;;;;;;4.55;4.07;;;;;;;29.61;41.59;98409.81;5069788;28;20225;-58
2023/06/21 10:16:57;;;;;;;6.63;4.90;;;;;;;29.65;42.04;98406.47;5069885;28;20615;-58
2023/06/21 10:19:25;;;;;;;5.07;4.13;;;;;;;29.66;41.64;98389.44;5069932;28;20211;-58
2023/06/21 10:21:58;;;;;;;5.28;4.25;;;;;;;29.85;42.05;98399.00;5069864;28;20773;-58
2023/06/21 10:24:26;;;;;;;5.68;4.50;;;;;;;29.95;41.43;98393.94;5069923;28;20257;-58
2023/06/21 10:26:53;;;;;;;6.00;4.25;;;;;;;29.92;41.46;98370.38;5069827;28;20207;-58
2023/06/21 10:29:20;;;;;;;4.03;3.38;;;;;;;30.24;37.92;98398.44;5009937;28;20193;-58
2023/06/21 10:31:49;;;;;;;6.50;3.75;;;;;;;30.28;39.43;98388.94;5009977;28;20728;-58
2023/06/21 10:34:24;;;;;;;4.57;4.15;;;;;;;30.42;39.19;98395.66;5010011;28;20288;-58
2023/06/21 10:36:55;;;;;;;4.35;3.63;;;;;;;30.52;37.51;98398.59;5010204;28;20177;-58
2023/06/21 10:39:23;;;;;;;4.50;3.30;;;;;;;30.55;37.57;98395.44;5010127;28;20656;-57
2023/06/21 10:41:49;;;;;;;4.07;3.72;;;;;;;30.54;38.11;98391.16;5010029;28;20182;-58
2023/06/21 10:44:16;;;;;;;4.82;4.28;;;;;;;30.61;37.58;98372.34;5009988;28;20189;-58
2023/06/21 10:46:43;;;;;;;4.35;3.67;;;;;;;30.81;36.75;98387.00;5029583;28;20280;-58
2023/06/21 10:49:08;;;;;;;4.13;3.72;;;;;;;31.06;36.60;98378.72;5009774;28;20186;-58
2023/06/21 10:51:36;;;;;;;4.72;4.15;;;;;;;31.33;36.19;98399.38;5009930;28;20191;-59
2023/06/21 10:54:02;;;;;;;3.75;3.45;;;;;;;31.51;34.89;98401.88;5011599;28;20182;-58
2023/06/21 10:56:29;;;;;;;5.57;3.47;;;;;;;31.44;34.54;98395.84;5013796;28;20677;-58
2023/06/21 10:58:55;;;;;;;3.67;2.92;;;;;;;31.72;35.21;98406.56;5013865;28;20625;-58
2023/06/21 11:01:21;;;;;;;5.07;3.55;;;;;;;31.90;34.38;98387.66;5011384;28;20190;-58
2023/06/21 11:03:47;;;;;;;4.18;3.30;;;;;;;31.98;33.62;98400.66;5013747;28;20183;-58
2023/06/21 11:06:22;;;;;;;3.80;3.05;;;;;;;32.21;33.19;98394.31;5013714;28;20214;-58
2023/06/21 11:08:48;;;;;;;6.28;3.25;;;;;;;32.19;33.64;98396.44;5013708;28;20202;-58
2023/06/21 11:11:36;;;;;;;6.95;3.72;;;;;;;32.27;33.48;98399.56;5013584;28;20261;-58
2023/06/21 11:14:05;;;;;;;4.40;3.83;;;;;;;32.44;32.85;98400.38;5013626;28;20233;-58
2023/06/21 11:16:34;;;;;;;4.05;3.40;;;;;;;32.63;31.85;98404.41;5013519;28;20213;-58
2023/06/21 11:19:04;;;;;;;3.58;3.00;;;;;;;32.49;31.58;98403.16;5014017;28;20182;-58
2023/06/21 11:21:41;;;;;;;4.38;3.42;;;;;;;32.39;32.00;98397.63;5033279;28;20198;-58
2023/06/21 11:24:11;;;;;;;5.05;3.25;;;;;;;32.51;31.76;98395.66;4993760;28;20285;-59
2023/06/21 11:27:07;;;;;;;3.30;3.10;;;;;;;32.62;30.86;98401.97;4993588;28;20216;-57
2023/06/21 11:29:36;;;;;;;5.03;3.28;;;;;;;32.83;31.60;98391.38;4954790;29;20287;-57
2023/06/21 11:32:09;;;;;;;3.80;3.50;;;;;;;32.99;31.42;98397.75;4969372;28;20316;-58
2023/06/21 11:34:35;;;;;;;3.33;2.72;;;;;;;32.81;30.57;98384.63;4974219;28;20556;-58